Flight Track Log - Related Links

Times and Time Zones

All times are in EDT time to prevent confusion due to time zone crossing. See the JTL393 flight status page for this flight to view local times or setup timezone preferences in your user account.

Time Position Orientation Groundspeed Altitude Reporting Facility
EDT Latitude Longitude Course Direction KTS MPH feet Rate Location/Type
Tue 06:13:38 PM 42.5164 -94.3408 249° West 158 182 7,100  Level Minneapolis Center
Tue 06:14:40 PM 42.4936 -94.4219 249° West 215 247 9,400 1,984 Climbing Minneapolis Center
Tue 06:15:42 PM 42.4511 -94.4883 229° Southwest 231 266 11,200 1,790 Climbing Minneapolis Center
Tue 06:16:44 PM 42.3944 -94.5858 232° Southwest 265 305 13,100 1,355 Climbing Minneapolis Center
Tue 06:17:46 PM 42.3403 -94.6692 229° Southwest 288 331 14,000 435 Climbing Minneapolis Center
Tue 06:18:48 PM 42.2842 -94.7622 231° Southwest 308 354 14,000 48 Level Minneapolis Center
Tue 06:19:50 PM 42.2250 -94.8594 231° Southwest 328 377 14,100  Climbing Minneapolis Center
Tue 06:20:52 PM 42.1694 -94.9500 230° Southwest 319 367 14,000 -97 Descending Minneapolis Center
Tue 06:21:54 PM 42.1183 -95.0367 232° Southwest 299 344 13,900  Descending Minneapolis Center
Tue 06:22:56 PM 42.0383 -95.1425 225° Southwest 333 383 14,000 48 Climbing Minneapolis Center
Tue 06:23:58 PM 41.9669 -95.2264 221° Southwest 339 390 14,000 -288 Level Minneapolis Center
Tue 06:25:01 PM 41.9006 -95.3058 222° Southwest 323 372 13,400 -960 Descending Minneapolis Center
Tue 06:26:03 PM 41.8347 -95.3919 224° Southwest 329 379 12,000 -1,403 Descending Minneapolis Center
Tue 06:27:05 PM 41.7731 -95.4681 223° Southwest 309 356 10,500 -1,452 Descending Minneapolis Center
Tue 06:28:07 PM 41.7236 -95.5303 223° Southwest 260 299 9,000 -1,403 Descending Minneapolis Center
Tue 06:29:09 PM 41.6758 -95.5881 222° Southwest 239 275 7,600 -1,595 Descending Minneapolis Center
Tue 06:29:26 PM 41.6561 -95.6264 235° Southwest 237 273 6,900 -1,645 Descending Minneapolis Center
Tue 06:30:11 PM 41.6153 -95.6614 213° Southwest 241 277 5,900 -1,234 Descending Minneapolis Center
Tue 06:31:13 PM 41.5681 -95.7197 223° Southwest 239 275 4,700 -968 Descending Minneapolis Center
Tue 06:32:15 PM 41.5244 -95.7708 221° Southwest 225 259 3,900 -651 Descending Minneapolis Center
Tue 06:33:22 PM 41.4814 -95.8311 226° Southwest 178 205 3,300 -480 Descending Minneapolis Center
Tue 06:34:20 PM 41.4514 -95.8589 215° Southwest 188 216 2,900 -450 Descending Minneapolis Center
Tue 06:35:22 PM 41.4094 -95.8947 213° Southwest 185 213 2,400 -484 Descending Minneapolis Center
Tue 06:36:24 PM 41.3561 -95.9292 206° Southwest 159 183 1,900 -581 Descending Minneapolis Center
Tue 06:37:26 PM 41.3214 -95.9083 156° South 146 168 1,200 -677 Descending Minneapolis Center
Tue 06:39:00 PM 41.3032 -95.8941 246° West  Level Estimated

Login

Don't have an account? Register now (free) for customized features, flight alerts, and more!